sensor_id;sensor_type;location;lat;lon;timestamp;P1;durP1;ratioP1;P2;durP2;ratioP2
12906;SDS011;6521;50.498;8.474;2022-12-10T00:02:21;22.17;;;12.57;;
12906;SDS011;6521;50.498;8.474;2022-12-10T00:04:52;19.03;;;13.43;;
12906;SDS011;6521;50.498;8.474;2022-12-10T00:07:23;19.73;;;13.87;;
12906;SDS011;6521;50.498;8.474;2022-12-10T00:09:53;19.10;;;13.30;;
12906;SDS011;6521;50.498;8.474;2022-12-10T00:12:24;21.50;;;13.03;;
12906;SDS011;6521;50.498;8.474;2022-12-10T00:14:55;19.77;;;13.47;;
12906;SDS011;6521;50.498;8.474;2022-12-10T00:17:26;21.70;;;13.70;;
12906;SDS011;6521;50.498;8.474;2022-12-10T00:19:57;21.40;;;14.10;;
12906;SDS011;6521;50.498;8.474;2022-12-10T00:22:27;20.70;;;14.03;;
12906;SDS011;6521;50.498;8.474;2022-12-10T00:24:58;19.77;;;14.13;;
12906;SDS011;6521;50.498;8.474;2022-12-10T00:27:30;21.23;;;13.83;;
12906;SDS011;6521;50.498;8.474;2022-12-10T00:30:01;21.77;;;13.63;;
12906;SDS011;6521;50.498;8.474;2022-12-10T00:32:32;19.33;;;13.90;;
12906;SDS011;6521;50.498;8.474;2022-12-10T00:35:02;20.07;;;14.23;;
12906;SDS011;6521;50.498;8.474;2022-12-10T00:37:33;20.93;;;13.93;;
12906;SDS011;6521;50.498;8.474;2022-12-10T00:40:04;19.77;;;13.60;;
12906;SDS011;6521;50.498;8.474;2022-12-10T00:42:36;24.23;;;14.27;;
12906;SDS011;6521;50.498;8.474;2022-12-10T00:45:07;17.77;;;13.07;;
12906;SDS011;6521;50.498;8.474;2022-12-10T00:47:39;20.80;;;13.90;;
12906;SDS011;6521;50.498;8.474;2022-12-10T00:50:09;20.03;;;14.03;;
12906;SDS011;6521;50.498;8.474;2022-12-10T00:52:40;19.77;;;12.90;;
12906;SDS011;6521;50.498;8.474;2022-12-10T00:55:11;17.83;;;12.93;;
12906;SDS011;6521;50.498;8.474;2022-12-10T00:57:41;21.60;;;13.83;;
12906;SDS011;6521;50.498;8.474;2022-12-10T01:00:12;19.00;;;13.60;;
12906;SDS011;6521;50.498;8.474;2022-12-10T01:02:43;17.80;;;12.33;;
12906;SDS011;6521;50.498;8.474;2022-12-10T01:05:14;19.30;;;12.80;;
12906;SDS011;6521;50.498;8.474;2022-12-10T01:07:45;20.27;;;12.80;;
12906;SDS011;6521;50.498;8.474;2022-12-10T01:10:15;16.53;;;12.10;;
12906;SDS011;6521;50.498;8.474;2022-12-10T01:12:47;15.17;;;11.30;;
12906;SDS011;6521;50.498;8.474;2022-12-10T01:15:19;15.30;;;11.43;;
12906;SDS011;6521;50.498;8.474;2022-12-10T01:17:50;17.73;;;12.80;;
12906;SDS011;6521;50.498;8.474;2022-12-10T01:20:21;18.37;;;11.80;;
12906;SDS011;6521;50.498;8.474;2022-12-10T01:22:52;17.07;;;12.30;;
12906;SDS011;6521;50.498;8.474;2022-12-10T01:25:23;17.07;;;12.60;;
12906;SDS011;6521;50.498;8.474;2022-12-10T01:27:53;17.23;;;12.17;;
12906;SDS011;6521;50.498;8.474;2022-12-10T01:30:24;18.63;;;12.10;;
12906;SDS011;6521;50.498;8.474;2022-12-10T01:32:55;16.77;;;11.47;;
12906;SDS011;6521;50.498;8.474;2022-12-10T01:35:26;15.47;;;11.80;;
12906;SDS011;6521;50.498;8.474;2022-12-10T01:37:57;19.10;;;13.17;;
12906;SDS011;6521;50.498;8.474;2022-12-10T01:40:27;20.60;;;13.10;;
12906;SDS011;6521;50.498;8.474;2022-12-10T01:42:58;16.77;;;12.57;;
12906;SDS011;6521;50.498;8.474;2022-12-10T01:45:29;18.13;;;11.93;;
12906;SDS011;6521;50.498;8.474;2022-12-10T01:48:00;21.00;;;13.10;;
12906;SDS011;6521;50.498;8.474;2022-12-10T01:50:31;18.67;;;12.30;;
12906;SDS011;6521;50.498;8.474;2022-12-10T01:53:02;18.97;;;12.57;;
12906;SDS011;6521;50.498;8.474;2022-12-10T01:58:18;18.43;;;13.73;;
12906;SDS011;6521;50.498;8.474;2022-12-10T02:00:51;21.37;;;13.87;;
12906;SDS011;6521;50.498;8.474;2022-12-10T02:03:51;22.33;;;14.33;;
12906;SDS011;6521;50.498;8.474;2022-12-10T02:17:34;18.63;;;13.47;;
12906;SDS011;6521;50.498;8.474;2022-12-10T02:22:53;18.27;;;12.63;;
12906;SDS011;6521;50.498;8.474;2022-12-10T02:25:38;18.73;;;12.73;;
12906;SDS011;6521;50.498;8.474;2022-12-10T02:28:17;17.83;;;12.63;;
12906;SDS011;6521;50.498;8.474;2022-12-10T02:30:53;19.00;;;12.07;;
12906;SDS011;6521;50.498;8.474;2022-12-10T02:33:24;17.90;;;13.23;;
12906;SDS011;6521;50.498;8.474;2022-12-10T02:35:57;17.53;;;12.60;;
12906;SDS011;6521;50.498;8.474;2022-12-10T02:38:31;16.53;;;12.20;;
12906;SDS011;6521;50.498;8.474;2022-12-10T02:41:06;19.93;;;13.47;;
12906;SDS011;6521;50.498;8.474;2022-12-10T02:43:44;15.90;;;12.17;;
12906;SDS011;6521;50.498;8.474;2022-12-10T02:46:16;16.73;;;12.00;;
12906;SDS011;6521;50.498;8.474;2022-12-10T02:48:48;15.47;;;10.70;;
12906;SDS011;6521;50.498;8.474;2022-12-10T02:51:21;14.93;;;11.03;;
12906;SDS011;6521;50.498;8.474;2022-12-10T02:53:59;16.90;;;12.20;;
12906;SDS011;6521;50.498;8.474;2022-12-10T02:56:42;15.17;;;10.67;;
12906;SDS011;6521;50.498;8.474;2022-12-10T03:02:10;17.40;;;12.37;;
12906;SDS011;6521;50.498;8.474;2022-12-10T03:07:19;14.67;;;11.33;;
12906;SDS011;6521;50.498;8.474;2022-12-10T03:09:57;15.07;;;10.10;;
12906;SDS011;6521;50.498;8.474;2022-12-10T03:12:36;16.37;;;11.70;;
12906;SDS011;6521;50.498;8.474;2022-12-10T03:15:11;17.83;;;12.07;;
12906;SDS011;6521;50.498;8.474;2022-12-10T03:17:44;17.70;;;11.30;;
12906;SDS011;6521;50.498;8.474;2022-12-10T03:20:17;15.77;;;11.20;;
12906;SDS011;6521;50.498;8.474;2022-12-10T03:22:48;14.20;;;9.47;;
12906;SDS011;6521;50.498;8.474;2022-12-10T03:25:21;14.20;;;10.17;;
12906;SDS011;6521;50.498;8.474;2022-12-10T03:27:56;16.33;;;10.73;;
12906;SDS011;6521;50.498;8.474;2022-12-10T03:30:30;15.87;;;11.13;;
12906;SDS011;6521;50.498;8.474;2022-12-10T03:33:03;16.27;;;12.33;;
12906;SDS011;6521;50.498;8.474;2022-12-10T03:35:34;13.73;;;10.77;;
12906;SDS011;6521;50.498;8.474;2022-12-10T03:38:06;17.33;;;11.60;;
12906;SDS011;6521;50.498;8.474;2022-12-10T03:40:37;14.87;;;10.60;;
12906;SDS011;6521;50.498;8.474;2022-12-10T03:43:08;16.10;;;11.20;;
12906;SDS011;6521;50.498;8.474;2022-12-10T03:45:39;15.10;;;10.90;;
12906;SDS011;6521;50.498;8.474;2022-12-10T03:48:10;14.83;;;10.40;;
12906;SDS011;6521;50.498;8.474;2022-12-10T03:50:41;16.83;;;11.47;;
12906;SDS011;6521;50.498;8.474;2022-12-10T03:53:12;16.93;;;11.40;;
12906;SDS011;6521;50.498;8.474;2022-12-10T03:55:43;14.83;;;11.00;;
12906;SDS011;6521;50.498;8.474;2022-12-10T03:58:14;16.80;;;12.13;;
12906;SDS011;6521;50.498;8.474;2022-12-10T04:00:45;14.53;;;11.07;;
12906;SDS011;6521;50.498;8.474;2022-12-10T04:03:15;16.60;;;11.53;;
12906;SDS011;6521;50.498;8.474;2022-12-10T04:05:46;16.47;;;11.80;;
12906;SDS011;6521;50.498;8.474;2022-12-10T04:08:17;14.30;;;11.60;;
12906;SDS011;6521;50.498;8.474;2022-12-10T04:10:48;19.77;;;11.67;;
12906;SDS011;6521;50.498;8.474;2022-12-10T04:13:19;16.07;;;10.87;;
12906;SDS011;6521;50.498;8.474;2022-12-10T04:16:22;15.63;;;10.97;;
12906;SDS011;6521;50.498;8.474;2022-12-10T04:19:01;16.13;;;11.80;;
12906;SDS011;6521;50.498;8.474;2022-12-10T04:21:37;14.47;;;10.83;;
12906;SDS011;6521;50.498;8.474;2022-12-10T04:24:29;17.57;;;12.20;;
12906;SDS011;6521;50.498;8.474;2022-12-10T04:27:24;14.90;;;11.00;;
12906;SDS011;6521;50.498;8.474;2022-12-10T04:29:58;16.57;;;11.07;;
12906;SDS011;6521;50.498;8.474;2022-12-10T04:32:30;15.33;;;11.33;;
12906;SDS011;6521;50.498;8.474;2022-12-10T04:35:01;14.33;;;11.30;;
12906;SDS011;6521;50.498;8.474;2022-12-10T04:37:32;15.23;;;11.37;;
12906;SDS011;6521;50.498;8.474;2022-12-10T04:40:03;16.10;;;10.73;;
12906;SDS011;6521;50.498;8.474;2022-12-10T04:42:34;14.70;;;10.63;;
12906;SDS011;6521;50.498;8.474;2022-12-10T04:45:05;15.10;;;10.93;;
12906;SDS011;6521;50.498;8.474;2022-12-10T04:47:36;17.03;;;11.83;;
12906;SDS011;6521;50.498;8.474;2022-12-10T04:50:07;15.53;;;10.73;;
12906;SDS011;6521;50.498;8.474;2022-12-10T04:52:38;15.70;;;10.70;;
12906;SDS011;6521;50.498;8.474;2022-12-10T04:55:09;15.80;;;10.90;;
12906;SDS011;6521;50.498;8.474;2022-12-10T04:57:40;15.50;;;10.70;;
12906;SDS011;6521;50.498;8.474;2022-12-10T05:00:10;16.23;;;11.47;;
12906;SDS011;6521;50.498;8.474;2022-12-10T05:02:42;16.97;;;11.37;;
12906;SDS011;6521;50.498;8.474;2022-12-10T05:05:13;14.23;;;10.70;;
12906;SDS011;6521;50.498;8.474;2022-12-10T05:07:43;15.43;;;11.47;;
12906;SDS011;6521;50.498;8.474;2022-12-10T05:10:14;17.43;;;11.13;;
12906;SDS011;6521;50.498;8.474;2022-12-10T05:12:45;15.03;;;11.73;;
12906;SDS011;6521;50.498;8.474;2022-12-10T05:15:15;16.03;;;11.50;;
12906;SDS011;6521;50.498;8.474;2022-12-10T05:17:46;22.03;;;12.17;;
12906;SDS011;6521;50.498;8.474;2022-12-10T05:20:17;16.97;;;11.10;;
12906;SDS011;6521;50.498;8.474;2022-12-10T05:22:47;18.63;;;11.90;;
12906;SDS011;6521;50.498;8.474;2022-12-10T05:25:37;16.53;;;11.40;;
12906;SDS011;6521;50.498;8.474;2022-12-10T05:28:23;16.03;;;11.20;;
12906;SDS011;6521;50.498;8.474;2022-12-10T05:30:53;14.83;;;10.90;;
12906;SDS011;6521;50.498;8.474;2022-12-10T05:33:24;15.23;;;10.77;;
12906;SDS011;6521;50.498;8.474;2022-12-10T05:36:00;18.57;;;10.97;;
12906;SDS011;6521;50.498;8.474;2022-12-10T05:38:33;15.57;;;11.20;;
12906;SDS011;6521;50.498;8.474;2022-12-10T05:41:15;16.33;;;11.10;;
12906;SDS011;6521;50.498;8.474;2022-12-10T05:43:50;17.30;;;11.03;;
12906;SDS011;6521;50.498;8.474;2022-12-10T05:46:22;15.87;;;11.30;;
12906;SDS011;6521;50.498;8.474;2022-12-10T05:48:54;22.70;;;12.77;;
12906;SDS011;6521;50.498;8.474;2022-12-10T05:51:27;21.53;;;14.33;;
12906;SDS011;6521;50.498;8.474;2022-12-10T05:54:00;18.63;;;12.10;;
12906;SDS011;6521;50.498;8.474;2022-12-10T05:56:34;14.97;;;10.53;;
12906;SDS011;6521;50.498;8.474;2022-12-10T05:59:05;17.20;;;11.60;;
12906;SDS011;6521;50.498;8.474;2022-12-10T06:01:36;15.77;;;11.63;;
12906;SDS011;6521;50.498;8.474;2022-12-10T06:04:07;17.97;;;10.30;;
12906;SDS011;6521;50.498;8.474;2022-12-10T06:06:39;12.80;;;10.13;;
12906;SDS011;6521;50.498;8.474;2022-12-10T06:09:11;16.07;;;11.53;;
12906;SDS011;6521;50.498;8.474;2022-12-10T06:11:43;15.73;;;10.67;;
12906;SDS011;6521;50.498;8.474;2022-12-10T06:14:14;17.17;;;11.60;;
12906;SDS011;6521;50.498;8.474;2022-12-10T06:16:44;17.67;;;11.83;;
12906;SDS011;6521;50.498;8.474;2022-12-10T06:19:15;15.40;;;11.57;;
12906;SDS011;6521;50.498;8.474;2022-12-10T06:21:46;14.90;;;11.00;;
12906;SDS011;6521;50.498;8.474;2022-12-10T06:24:17;16.73;;;11.27;;
12906;SDS011;6521;50.498;8.474;2022-12-10T06:26:48;15.13;;;11.33;;
12906;SDS011;6521;50.498;8.474;2022-12-10T06:29:20;17.57;;;11.40;;
12906;SDS011;6521;50.498;8.474;2022-12-10T06:31:50;17.90;;;11.90;;
12906;SDS011;6521;50.498;8.474;2022-12-10T06:34:21;15.50;;;11.23;;
12906;SDS011;6521;50.498;8.474;2022-12-10T06:36:52;14.03;;;10.60;;
12906;SDS011;6521;50.498;8.474;2022-12-10T06:39:23;29.00;;;12.17;;
12906;SDS011;6521;50.498;8.474;2022-12-10T06:41:53;23.23;;;12.67;;
12906;SDS011;6521;50.498;8.474;2022-12-10T06:44:24;17.97;;;11.63;;
12906;SDS011;6521;50.498;8.474;2022-12-10T06:46:55;15.80;;;10.87;;
12906;SDS011;6521;50.498;8.474;2022-12-10T06:49:26;17.60;;;11.10;;
12906;SDS011;6521;50.498;8.474;2022-12-10T06:51:56;19.07;;;12.40;;
12906;SDS011;6521;50.498;8.474;2022-12-10T06:54:27;21.53;;;12.20;;
12906;SDS011;6521;50.498;8.474;2022-12-10T06:56:58;16.83;;;12.00;;
12906;SDS011;6521;50.498;8.474;2022-12-10T06:59:29;24.20;;;12.27;;
12906;SDS011;6521;50.498;8.474;2022-12-10T07:02:00;18.60;;;12.23;;
12906;SDS011;6521;50.498;8.474;2022-12-10T07:04:31;18.80;;;10.13;;
12906;SDS011;6521;50.498;8.474;2022-12-10T07:07:01;27.47;;;11.73;;
12906;SDS011;6521;50.498;8.474;2022-12-10T07:09:33;16.13;;;10.97;;
12906;SDS011;6521;50.498;8.474;2022-12-10T07:12:04;15.30;;;11.03;;
12906;SDS011;6521;50.498;8.474;2022-12-10T07:14:35;14.77;;;10.60;;
12906;SDS011;6521;50.498;8.474;2022-12-10T07:17:06;14.03;;;10.17;;
12906;SDS011;6521;50.498;8.474;2022-12-10T07:19:37;16.10;;;10.90;;
12906;SDS011;6521;50.498;8.474;2022-12-10T07:22:08;17.70;;;11.17;;
12906;SDS011;6521;50.498;8.474;2022-12-10T07:24:39;15.07;;;11.03;;
12906;SDS011;6521;50.498;8.474;2022-12-10T07:27:09;15.07;;;10.93;;
12906;SDS011;6521;50.498;8.474;2022-12-10T07:29:40;20.57;;;12.10;;
12906;SDS011;6521;50.498;8.474;2022-12-10T07:32:11;15.63;;;11.43;;
12906;SDS011;6521;50.498;8.474;2022-12-10T07:34:43;18.17;;;11.97;;
12906;SDS011;6521;50.498;8.474;2022-12-10T07:37:14;17.60;;;12.10;;
12906;SDS011;6521;50.498;8.474;2022-12-10T07:39:45;14.37;;;10.50;;
12906;SDS011;6521;50.498;8.474;2022-12-10T07:42:17;25.20;;;10.87;;
12906;SDS011;6521;50.498;8.474;2022-12-10T07:44:48;17.47;;;10.77;;
12906;SDS011;6521;50.498;8.474;2022-12-10T07:47:22;18.33;;;11.53;;
12906;SDS011;6521;50.498;8.474;2022-12-10T07:49:55;18.00;;;11.90;;
12906;SDS011;6521;50.498;8.474;2022-12-10T07:52:25;16.67;;;11.00;;
12906;SDS011;6521;50.498;8.474;2022-12-10T07:54:56;19.37;;;11.20;;
12906;SDS011;6521;50.498;8.474;2022-12-10T07:57:28;16.40;;;11.23;;
12906;SDS011;6521;50.498;8.474;2022-12-10T08:00:00;15.13;;;11.10;;
12906;SDS011;6521;50.498;8.474;2022-12-10T08:02:32;19.43;;;12.33;;
12906;SDS011;6521;50.498;8.474;2022-12-10T08:05:03;18.60;;;12.40;;
12906;SDS011;6521;50.498;8.474;2022-12-10T08:07:34;16.17;;;12.17;;
12906;SDS011;6521;50.498;8.474;2022-12-10T08:10:05;27.83;;;11.97;;
12906;SDS011;6521;50.498;8.474;2022-12-10T08:12:36;16.17;;;11.57;;
12906;SDS011;6521;50.498;8.474;2022-12-10T08:15:07;21.63;;;11.73;;
12906;SDS011;6521;50.498;8.474;2022-12-10T08:17:39;19.93;;;11.97;;
12906;SDS011;6521;50.498;8.474;2022-12-10T08:20:09;28.40;;;12.23;;
12906;SDS011;6521;50.498;8.474;2022-12-10T08:22:40;18.47;;;10.63;;
12906;SDS011;6521;50.498;8.474;2022-12-10T08:25:12;25.67;;;12.53;;
12906;SDS011;6521;50.498;8.474;2022-12-10T08:27:45;35.50;;;12.97;;
12906;SDS011;6521;50.498;8.474;2022-12-10T08:30:16;20.20;;;12.43;;
12906;SDS011;6521;50.498;8.474;2022-12-10T08:32:46;30.33;;;12.27;;
12906;SDS011;6521;50.498;8.474;2022-12-10T08:35:17;21.23;;;11.43;;
12906;SDS011;6521;50.498;8.474;2022-12-10T08:37:48;34.10;;;15.40;;
12906;SDS011;6521;50.498;8.474;2022-12-10T08:40:19;30.30;;;15.67;;
12906;SDS011;6521;50.498;8.474;2022-12-10T08:42:51;35.00;;;17.00;;
12906;SDS011;6521;50.498;8.474;2022-12-10T08:45:22;29.00;;;15.97;;
12906;SDS011;6521;50.498;8.474;2022-12-10T08:47:53;38.60;;;17.80;;
12906;SDS011;6521;50.498;8.474;2022-12-10T08:50:24;33.70;;;17.43;;
12906;SDS011;6521;50.498;8.474;2022-12-10T08:52:55;31.77;;;17.40;;
12906;SDS011;6521;50.498;8.474;2022-12-10T08:55:26;40.40;;;18.20;;
12906;SDS011;6521;50.498;8.474;2022-12-10T08:57:57;34.37;;;19.57;;
12906;SDS011;6521;50.498;8.474;2022-12-10T09:00:28;27.63;;;16.77;;
12906;SDS011;6521;50.498;8.474;2022-12-10T09:02:59;20.47;;;12.73;;
12906;SDS011;6521;50.498;8.474;2022-12-10T09:05:30;17.37;;;11.97;;
12906;SDS011;6521;50.498;8.474;2022-12-10T09:08:00;14.50;;;10.47;;
12906;SDS011;6521;50.498;8.474;2022-12-10T09:10:31;21.47;;;11.07;;
12906;SDS011;6521;50.498;8.474;2022-12-10T09:13:02;13.27;;;9.33;;
12906;SDS011;6521;50.498;8.474;2022-12-10T09:15:33;13.27;;;9.47;;
12906;SDS011;6521;50.498;8.474;2022-12-10T09:18:04;13.77;;;9.10;;
12906;SDS011;6521;50.498;8.474;2022-12-10T09:20:36;11.17;;;8.43;;
12906;SDS011;6521;50.498;8.474;2022-12-10T09:23:07;12.13;;;8.60;;
12906;SDS011;6521;50.498;8.474;2022-12-10T09:25:38;11.70;;;8.53;;
12906;SDS011;6521;50.498;8.474;2022-12-10T09:28:09;14.50;;;9.73;;
12906;SDS011;6521;50.498;8.474;2022-12-10T09:30:39;16.53;;;10.13;;
12906;SDS011;6521;50.498;8.474;2022-12-10T09:33:10;13.77;;;8.97;;
12906;SDS011;6521;50.498;8.474;2022-12-10T09:35:41;14.77;;;9.40;;
12906;SDS011;6521;50.498;8.474;2022-12-10T09:38:12;14.07;;;10.47;;
12906;SDS011;6521;50.498;8.474;2022-12-10T09:40:59;23.63;;;10.47;;
12906;SDS011;6521;50.498;8.474;2022-12-10T09:46:31;14.37;;;9.33;;
12906;SDS011;6521;50.498;8.474;2022-12-10T09:52:03;17.43;;;10.17;;
12906;SDS011;6521;50.498;8.474;2022-12-10T09:54:41;13.20;;;9.70;;
12906;SDS011;6521;50.498;8.474;2022-12-10T09:57:38;18.80;;;8.43;;
12906;SDS011;6521;50.498;8.474;2022-12-10T10:02:46;14.30;;;9.40;;
12906;SDS011;6521;50.498;8.474;2022-12-10T10:05:34;20.20;;;10.80;;
12906;SDS011;6521;50.498;8.474;2022-12-10T10:08:13;11.97;;;8.97;;
12906;SDS011;6521;50.498;8.474;2022-12-10T10:10:51;17.97;;;10.70;;
12906;SDS011;6521;50.498;8.474;2022-12-10T10:13:36;14.47;;;10.03;;
12906;SDS011;6521;50.498;8.474;2022-12-10T10:16:26;15.40;;;9.20;;
12906;SDS011;6521;50.498;8.474;2022-12-10T10:19:03;15.47;;;10.37;;
12906;SDS011;6521;50.498;8.474;2022-12-10T10:21:38;13.80;;;10.40;;
12906;SDS011;6521;50.498;8.474;2022-12-10T10:24:12;20.07;;;10.20;;
12906;SDS011;6521;50.498;8.474;2022-12-10T10:26:47;14.80;;;10.47;;
12906;SDS011;6521;50.498;8.474;2022-12-10T10:29:19;14.30;;;10.20;;
12906;SDS011;6521;50.498;8.474;2022-12-10T10:34:45;14.33;;;10.63;;
12906;SDS011;6521;50.498;8.474;2022-12-10T10:37:30;15.43;;;11.00;;
12906;SDS011;6521;50.498;8.474;2022-12-10T10:43:14;19.10;;;11.73;;
12906;SDS011;6521;50.498;8.474;2022-12-10T10:46:00;13.97;;;10.87;;
12906;SDS011;6521;50.498;8.474;2022-12-10T10:48:35;15.30;;;11.13;;
12906;SDS011;6521;50.498;8.474;2022-12-10T10:51:07;16.00;;;11.80;;
12906;SDS011;6521;50.498;8.474;2022-12-10T10:53:54;17.17;;;10.73;;
12906;SDS011;6521;50.498;8.474;2022-12-10T10:56:37;15.67;;;10.90;;
12906;SDS011;6521;50.498;8.474;2022-12-10T11:01:48;12.00;;;9.23;;
12906;SDS011;6521;50.498;8.474;2022-12-10T11:04:45;13.90;;;10.00;;
12906;SDS011;6521;50.498;8.474;2022-12-10T11:07:20;11.00;;;8.47;;
12906;SDS011;6521;50.498;8.474;2022-12-10T11:09:55;16.47;;;12.37;;
12906;SDS011;6521;50.498;8.474;2022-12-10T11:12:33;16.17;;;11.20;;
12906;SDS011;6521;50.498;8.474;2022-12-10T11:17:55;16.57;;;11.17;;
12906;SDS011;6521;50.498;8.474;2022-12-10T11:22:59;18.80;;;11.43;;
12906;SDS011;6521;50.498;8.474;2022-12-10T11:26:02;12.53;;;8.90;;
12906;SDS011;6521;50.498;8.474;2022-12-10T11:28:41;13.73;;;9.03;;
12906;SDS011;6521;50.498;8.474;2022-12-10T11:57:34;11.93;;;9.47;;
12906;SDS011;6521;50.498;8.474;2022-12-10T12:00:19;11.60;;;9.20;;
12906;SDS011;6521;50.498;8.474;2022-12-10T12:05:57;13.27;;;10.40;;
12906;SDS011;6521;50.498;8.474;2022-12-10T12:14:24;10.23;;;8.10;;
12906;SDS011;6521;50.498;8.474;2022-12-10T12:19:46;13.03;;;10.10;;
12906;SDS011;6521;50.498;8.474;2022-12-10T12:30:43;15.20;;;9.10;;
12906;SDS011;6521;50.498;8.474;2022-12-10T12:33:18;11.87;;;9.43;;
12906;SDS011;6521;50.498;8.474;2022-12-10T12:36:00;10.57;;;7.93;;
12906;SDS011;6521;50.498;8.474;2022-12-10T12:38:49;10.93;;;7.77;;
12906;SDS011;6521;50.498;8.474;2022-12-10T12:49:56;12.43;;;8.73;;
12906;SDS011;6521;50.498;8.474;2022-12-10T12:52:32;11.13;;;8.30;;
12906;SDS011;6521;50.498;8.474;2022-12-10T12:55:17;13.63;;;10.30;;
12906;SDS011;6521;50.498;8.474;2022-12-10T12:58:21;11.20;;;8.67;;
12906;SDS011;6521;50.498;8.474;2022-12-10T13:00:55;21.97;;;9.43;;
12906;SDS011;6521;50.498;8.474;2022-12-10T13:03:35;13.27;;;9.83;;
12906;SDS011;6521;50.498;8.474;2022-12-10T13:08:57;13.60;;;8.47;;
12906;SDS011;6521;50.498;8.474;2022-12-10T13:11:46;9.90;;;8.40;;
12906;SDS011;6521;50.498;8.474;2022-12-10T13:14:35;11.07;;;8.57;;
12906;SDS011;6521;50.498;8.474;2022-12-10T13:23:01;9.90;;;8.07;;
12906;SDS011;6521;50.498;8.474;2022-12-10T13:25:56;16.93;;;8.90;;
12906;SDS011;6521;50.498;8.474;2022-12-10T13:31:07;10.67;;;7.93;;
12906;SDS011;6521;50.498;8.474;2022-12-10T13:36:35;15.57;;;8.50;;
12906;SDS011;6521;50.498;8.474;2022-12-10T13:45:00;11.00;;;8.57;;
12906;SDS011;6521;50.498;8.474;2022-12-10T13:50:05;10.47;;;8.20;;
12906;SDS011;6521;50.498;8.474;2022-12-10T13:53:00;9.40;;;7.87;;
12906;SDS011;6521;50.498;8.474;2022-12-10T14:01:39;11.03;;;8.83;;
12906;SDS011;6521;50.498;8.474;2022-12-10T14:07:09;10.17;;;8.33;;
12906;SDS011;6521;50.498;8.474;2022-12-10T14:09:47;14.93;;;9.23;;
12906;SDS011;6521;50.498;8.474;2022-12-10T14:12:25;10.67;;;8.77;;
12906;SDS011;6521;50.498;8.474;2022-12-10T14:15:01;13.63;;;8.53;;
12906;SDS011;6521;50.498;8.474;2022-12-10T14:17:39;14.73;;;9.63;;
12906;SDS011;6521;50.498;8.474;2022-12-10T14:20:23;12.53;;;9.20;;
12906;SDS011;6521;50.498;8.474;2022-12-10T14:22:55;11.03;;;8.30;;
12906;SDS011;6521;50.498;8.474;2022-12-10T14:25:46;15.93;;;11.57;;
12906;SDS011;6521;50.498;8.474;2022-12-10T14:28:17;16.50;;;10.90;;
12906;SDS011;6521;50.498;8.474;2022-12-10T14:30:48;14.87;;;9.37;;
12906;SDS011;6521;50.498;8.474;2022-12-10T14:33:21;19.63;;;9.73;;
12906;SDS011;6521;50.498;8.474;2022-12-10T14:35:54;11.53;;;8.50;;
12906;SDS011;6521;50.498;8.474;2022-12-10T14:38:27;13.60;;;9.80;;
12906;SDS011;6521;50.498;8.474;2022-12-10T14:41:02;16.50;;;10.10;;
12906;SDS011;6521;50.498;8.474;2022-12-10T14:43:37;18.90;;;10.97;;
12906;SDS011;6521;50.498;8.474;2022-12-10T14:46:13;15.90;;;10.70;;
12906;SDS011;6521;50.498;8.474;2022-12-10T14:48:46;13.80;;;10.37;;
12906;SDS011;6521;50.498;8.474;2022-12-10T14:51:19;19.23;;;11.63;;
12906;SDS011;6521;50.498;8.474;2022-12-10T14:53:53;15.00;;;11.37;;
12906;SDS011;6521;50.498;8.474;2022-12-10T14:56:32;15.77;;;11.23;;
12906;SDS011;6521;50.498;8.474;2022-12-10T15:01:46;18.77;;;10.47;;
12906;SDS011;6521;50.498;8.474;2022-12-10T15:04:20;19.73;;;11.00;;
12906;SDS011;6521;50.498;8.474;2022-12-10T15:06:51;17.10;;;11.07;;
12906;SDS011;6521;50.498;8.474;2022-12-10T15:09:27;15.80;;;11.20;;
12906;SDS011;6521;50.498;8.474;2022-12-10T15:11:59;20.50;;;12.00;;
12906;SDS011;6521;50.498;8.474;2022-12-10T15:14:30;31.53;;;13.80;;
12906;SDS011;6521;50.498;8.474;2022-12-10T15:17:01;21.13;;;13.03;;
12906;SDS011;6521;50.498;8.474;2022-12-10T15:19:32;17.60;;;12.17;;
12906;SDS011;6521;50.498;8.474;2022-12-10T15:22:20;15.93;;;11.07;;
12906;SDS011;6521;50.498;8.474;2022-12-10T15:24:52;16.10;;;11.37;;
12906;SDS011;6521;50.498;8.474;2022-12-10T15:27:24;18.00;;;13.23;;
12906;SDS011;6521;50.498;8.474;2022-12-10T15:29:55;18.90;;;12.70;;
12906;SDS011;6521;50.498;8.474;2022-12-10T15:32:27;18.30;;;12.47;;
12906;SDS011;6521;50.498;8.474;2022-12-10T15:35:01;16.07;;;10.97;;
12906;SDS011;6521;50.498;8.474;2022-12-10T15:37:38;18.50;;;12.20;;
12906;SDS011;6521;50.498;8.474;2022-12-10T15:40:24;21.57;;;12.60;;
12906;SDS011;6521;50.498;8.474;2022-12-10T15:43:43;17.70;;;12.10;;
12906;SDS011;6521;50.498;8.474;2022-12-10T15:45:56;18.27;;;11.77;;
12906;SDS011;6521;50.498;8.474;2022-12-10T15:48:29;15.73;;;11.03;;
12906;SDS011;6521;50.498;8.474;2022-12-10T15:51:00;19.60;;;11.70;;
12906;SDS011;6521;50.498;8.474;2022-12-10T15:53:34;15.60;;;11.50;;
12906;SDS011;6521;50.498;8.474;2022-12-10T15:56:07;17.57;;;10.20;;
12906;SDS011;6521;50.498;8.474;2022-12-10T15:58:38;19.33;;;11.90;;
12906;SDS011;6521;50.498;8.474;2022-12-10T16:01:12;15.73;;;10.90;;
12906;SDS011;6521;50.498;8.474;2022-12-10T16:03:44;21.60;;;11.60;;
12906;SDS011;6521;50.498;8.474;2022-12-10T16:06:15;20.60;;;12.47;;
12906;SDS011;6521;50.498;8.474;2022-12-10T16:08:46;16.17;;;11.77;;
12906;SDS011;6521;50.498;8.474;2022-12-10T16:11:17;16.00;;;11.00;;
12906;SDS011;6521;50.498;8.474;2022-12-10T16:13:51;16.87;;;11.63;;
12906;SDS011;6521;50.498;8.474;2022-12-10T16:16:24;17.60;;;11.10;;
12906;SDS011;6521;50.498;8.474;2022-12-10T16:18:56;15.77;;;11.33;;
12906;SDS011;6521;50.498;8.474;2022-12-10T16:21:26;19.17;;;11.37;;
12906;SDS011;6521;50.498;8.474;2022-12-10T16:23:57;18.37;;;12.30;;
12906;SDS011;6521;50.498;8.474;2022-12-10T16:26:28;18.03;;;12.13;;
12906;SDS011;6521;50.498;8.474;2022-12-10T16:28:59;18.57;;;12.27;;
12906;SDS011;6521;50.498;8.474;2022-12-10T16:31:30;18.90;;;12.80;;
12906;SDS011;6521;50.498;8.474;2022-12-10T16:34:00;18.93;;;12.37;;
12906;SDS011;6521;50.498;8.474;2022-12-10T16:36:31;18.53;;;12.13;;
12906;SDS011;6521;50.498;8.474;2022-12-10T16:39:03;20.17;;;13.83;;
12906;SDS011;6521;50.498;8.474;2022-12-10T16:41:35;22.03;;;13.30;;
12906;SDS011;6521;50.498;8.474;2022-12-10T16:44:06;20.83;;;13.17;;
12906;SDS011;6521;50.498;8.474;2022-12-10T16:46:37;18.93;;;12.73;;
12906;SDS011;6521;50.498;8.474;2022-12-10T16:49:08;21.27;;;13.80;;
12906;SDS011;6521;50.498;8.474;2022-12-10T16:51:39;22.50;;;13.77;;
12906;SDS011;6521;50.498;8.474;2022-12-10T16:54:12;24.13;;;13.70;;
12906;SDS011;6521;50.498;8.474;2022-12-10T16:56:44;21.30;;;14.00;;
12906;SDS011;6521;50.498;8.474;2022-12-10T16:59:16;21.73;;;14.10;;
12906;SDS011;6521;50.498;8.474;2022-12-10T17:01:46;21.70;;;14.13;;
12906;SDS011;6521;50.498;8.474;2022-12-10T17:04:17;23.97;;;15.07;;
12906;SDS011;6521;50.498;8.474;2022-12-10T17:06:48;23.33;;;14.77;;
12906;SDS011;6521;50.498;8.474;2022-12-10T17:09:18;22.43;;;14.53;;
12906;SDS011;6521;50.498;8.474;2022-12-10T17:11:49;23.50;;;15.40;;
12906;SDS011;6521;50.498;8.474;2022-12-10T17:14:27;24.97;;;15.10;;
12906;SDS011;6521;50.498;8.474;2022-12-10T17:17:00;27.83;;;16.10;;
12906;SDS011;6521;50.498;8.474;2022-12-10T17:19:34;24.03;;;15.83;;
12906;SDS011;6521;50.498;8.474;2022-12-10T17:22:07;24.70;;;14.97;;
12906;SDS011;6521;50.498;8.474;2022-12-10T17:24:39;26.60;;;15.90;;
12906;SDS011;6521;50.498;8.474;2022-12-10T17:27:11;22.60;;;15.47;;
12906;SDS011;6521;50.498;8.474;2022-12-10T17:29:44;24.37;;;14.80;;